Time;durP1;ratioP1;P1;durP2;ratioP2;P2;SDS_P1;SDS_P2;PMS_P1;PMS_P2;Temp;Humidity;BMP_temperature;BMP_pressure;BME280_temperature;BME280_humidity;BME280_pressure;Samples;Min_cycle;Max_cycle;Signal;HPM_P1;HPM_P2
2023/07/09 00:01:05;;;;;;;3.88;2.35;;;20.30;82.50;;;;;;6194009;23;20008;-80
2023/07/09 00:03:30;;;;;;;3.30;1.90;;;20.30;82.50;;;;;;6194241;23;20000;-81
2023/07/09 00:05:56;;;;;;;3.30;1.83;;;20.30;82.40;;;;;;6193263;23;20005;-81
2023/07/09 00:08:27;;;;;;;3.75;1.80;;;20.30;82.40;;;;;;6220410;23;20039;-82
2023/07/09 00:10:54;;;;;;;3.58;1.98;;;20.30;82.40;;;;;;6220947;23;20000;-81
2023/07/09 00:13:21;;;;;;;3.35;1.92;;;20.30;82.40;;;;;;6193026;23;20443;-81
2023/07/09 00:15:48;;;;;;;4.22;2.17;;;20.30;82.40;;;;;;6219776;23;20342;-81
2023/07/09 00:18:13;;;;;;;3.10;2.03;;;20.30;83.00;;;;;;6193227;23;20421;-81
2023/07/09 00:20:41;;;;;;;3.80;1.98;;;20.30;82.50;;;;;;6193405;23;20028;-81
2023/07/09 00:23:06;;;;;;;3.58;1.90;;;20.30;82.60;;;;;;6192680;23;20007;-81
2023/07/09 00:25:35;;;;;;;3.85;2.13;;;20.20;82.70;;;;;;6219172;23;20028;-81
2023/07/09 00:28:01;;;;;;;3.75;1.90;;;20.20;82.80;;;;;;6218780;23;20000;-81
2023/07/09 00:30:27;;;;;;;3.38;2.10;;;20.20;83.00;;;;;;6191956;23;20034;-80
2023/07/09 00:32:54;;;;;;;3.22;1.85;;;20.20;83.00;;;;;;6219752;23;20005;-81
2023/07/09 00:35:22;;;;;;;3.28;2.10;;;20.20;83.10;;;;;;6218898;23;20004;-81
2023/07/09 00:37:47;;;;;;;3.63;2.00;;;20.20;83.10;;;;;;6190821;23;20084;-81
2023/07/09 00:40:22;;;;;;;3.30;1.90;;;20.20;83.20;;;;;;6191554;23;20355;-81
2023/07/09 00:42:51;;;;;;;3.05;1.80;;;20.20;83.20;;;;;;6191920;23;20007;-81
2023/07/09 00:45:21;;;;;;;4.05;2.20;;;20.20;83.20;;;;;;6218695;23;20016;-81
2023/07/09 00:47:51;;;;;;;3.45;1.90;;;20.10;83.20;;;;;;6190636;23;20012;-80
2023/07/09 00:50:23;;;;;;;3.67;2.00;;;20.10;83.20;;;;;;6191224;23;20001;-81
2023/07/09 00:52:56;;;;;;;3.47;2.00;;;20.10;83.20;;;;;;6217984;23;20055;-81
2023/07/09 00:55:27;;;;;;;3.70;1.88;;;20.10;83.20;;;;;;6218250;23;20008;-80
2023/07/09 00:57:58;;;;;;;3.33;1.98;;;20.10;83.20;;;;;;6217013;23;19993;-81
2023/07/09 01:00:46;;;;;;;3.17;1.77;;;20.10;83.20;;;;;;6218510;23;19997;-81
2023/07/09 01:03:21;;;;;;;3.55;1.92;;;20.10;83.20;;;;;;6190640;23;20007;-81
2023/07/09 01:05:51;;;;;;;2.92;1.88;;;20.10;83.20;;;;;;6189925;23;20347;-81
2023/07/09 01:08:17;;;;;;;3.03;1.90;;;20.10;83.20;;;;;;6216473;23;20005;-81
2023/07/09 01:10:43;;;;;;;5.40;2.28;;;20.10;83.20;;;;;;6190158;23;20005;-81
2023/07/09 01:13:08;;;;;;;3.78;2.20;;;20.10;83.20;;;;;;6189719;23;20084;-80
2023/07/09 01:15:37;;;;;;;2.75;1.70;;;20.10;83.20;;;;;;6216727;23;20001;-81
2023/07/09 01:18:06;;;;;;;3.45;1.80;;;20.10;83.20;;;;;;6216489;23;20347;-80
2023/07/09 01:20:32;;;;;;;3.67;2.00;;;20.10;83.20;;;;;;6190049;23;20091;-81
2023/07/09 01:23:00;;;;;;;4.28;2.20;;;20.10;83.20;;;;;;6216439;23;20076;-80
2023/07/09 01:25:27;;;;;;;3.38;2.13;;;20.20;83.10;;;;;;6216807;23;20001;-81
2023/07/09 01:27:54;;;;;;;3.88;2.03;;;20.20;83.10;;;;;;6189320;23;20031;-81
2023/07/09 01:30:24;;;;;;;3.70;2.20;;;20.20;83.00;;;;;;6189757;23;20054;-81
2023/07/09 01:32:50;;;;;;;3.45;2.05;;;20.20;82.90;;;;;;6216178;23;20005;-80
2023/07/09 01:35:19;;;;;;;4.13;2.00;;;20.20;82.80;;;;;;6189606;23;20011;-80
2023/07/09 01:37:46;;;;;;;3.10;1.90;;;20.20;82.90;;;;;;6217400;23;20489;-80
2023/07/09 01:40:14;;;;;;;3.55;2.08;;;20.30;82.90;;;;;;6216344;23;20001;-81
2023/07/09 01:42:40;;;;;;;4.15;2.08;;;20.30;82.90;;;;;;6215910;23;20005;-80
2023/07/09 01:45:09;;;;;;;3.55;2.10;;;20.30;83.00;;;;;;6215755;23;20004;-81
2023/07/09 01:47:35;;;;;;;3.67;2.10;;;20.30;83.20;;;;;;6189014;23;20047;-81
2023/07/09 01:50:01;;;;;;;3.08;1.92;;;20.30;83.00;;;;;;6215605;23;20005;-81
2023/07/09 01:52:33;;;;;;;3.22;1.80;;;20.20;83.20;;;;;;6189352;23;20427;-81
2023/07/09 01:54:58;;;;;;;;;;;20.30;82.90;;;;;;6189656;23;20422;-81
2023/07/09 01:57:32;;;;;;;3.13;1.80;;;20.20;82.90;;;;;;6188434;23;19938;-81
2023/07/09 01:59:59;;;;;;;4.47;2.30;;;20.20;83.50;;;;;;6188842;23;20075;-80
2023/07/09 02:02:25;;;;;;;3.33;1.75;;;20.20;83.10;;;;;;6186413;23;20008;-80
2023/07/09 02:04:56;;;;;;;3.58;1.90;;;20.20;83.10;;;;;;6188492;23;20047;-80
2023/07/09 02:07:23;;;;;;;3.53;2.00;;;20.20;83.20;;;;;;6214726;23;20001;-80
2023/07/09 02:09:49;;;;;;;3.40;2.08;;;20.20;83.80;;;;;;6188782;23;20000;-78
2023/07/09 02:12:15;;;;;;;3.28;1.92;;;20.20;83.30;;;;;;6215507;23;20000;-81
2023/07/09 02:14:42;;;;;;;3.28;1.88;;;20.10;83.20;;;;;;6188245;23;20005;-81
2023/07/09 02:17:09;;;;;;;3.30;1.83;;;20.10;83.20;;;;;;6220669;23;20082;-81
2023/07/09 02:19:35;;;;;;;3.50;2.08;;;20.10;83.30;;;;;;6222274;23;20008;-82
2023/07/09 02:22:01;;;;;;;3.05;1.92;;;20.10;83.20;;;;;;6195332;23;20004;-82
2023/07/09 02:24:27;;;;;;;3.33;1.75;;;20.10;83.30;;;;;;6222374;23;20003;-81
2023/07/09 02:26:57;;;;;;;3.42;1.95;;;20.10;83.30;;;;;;6221112;23;20609;-81
2023/07/09 02:29:24;;;;;;;2.95;1.88;;;20.10;83.40;;;;;;6221340;23;20031;-81
2023/07/09 02:31:51;;;;;;;3.58;2.05;;;20.10;83.40;;;;;;6221345;23;20054;-81
2023/07/09 02:34:20;;;;;;;3.38;2.03;;;20.10;83.40;;;;;;6193501;23;20005;-82
2023/07/09 02:36:47;;;;;;;3.53;2.00;;;20.10;83.30;;;;;;6194158;23;20009;-82
2023/07/09 02:39:13;;;;;;;3.75;2.00;;;20.10;83.40;;;;;;6196000;23;20027;-81
2023/07/09 02:41:40;;;;;;;3.05;1.77;;;20.10;83.40;;;;;;6195247;23;20000;-81
2023/07/09 02:44:06;;;;;;;3.55;1.92;;;20.10;83.50;;;;;;6222550;23;19997;-81
2023/07/09 02:46:32;;;;;;;3.45;2.05;;;20.10;83.50;;;;;;6221486;23;20095;-81
2023/07/09 02:48:58;;;;;;;3.80;2.00;;;20.10;83.50;;;;;;6221608;23;20012;-81
2023/07/09 02:51:26;;;;;;;3.58;2.00;;;20.10;83.50;;;;;;6221454;23;20015;-81
2023/07/09 02:53:53;;;;;;;3.47;2.00;;;20.10;83.50;;;;;;6221322;23;20001;-81
2023/07/09 02:56:19;;;;;;;3.10;1.90;;;20.10;83.50;;;;;;6193608;23;20062;-81
2023/07/09 02:58:48;;;;;;;2.85;1.77;;;20.10;83.40;;;;;;6220485;23;20004;-81
2023/07/09 03:01:14;;;;;;;4.22;2.20;;;20.10;83.40;;;;;;6219166;23;20001;-82
2023/07/09 03:03:40;;;;;;;3.25;2.00;;;20.20;83.60;;;;;;6220601;23;20047;-81
2023/07/09 03:06:06;;;;;;;3.08;1.80;;;20.20;83.50;;;;;;6220085;23;20009;-82
2023/07/09 03:08:32;;;;;;;3.10;1.92;;;20.20;83.40;;;;;;6192566;23;20004;-81
2023/07/09 03:10:57;;;;;;;3.53;2.00;;;20.20;83.40;;;;;;6192590;23;20054;-82
2023/07/09 03:13:23;;;;;;;3.38;2.00;;;20.20;83.30;;;;;;6192507;23;20339;-82
2023/07/09 03:15:56;;;;;;;3.75;2.08;;;20.20;83.20;;;;;;6191527;23;20071;-81
2023/07/09 03:18:22;;;;;;;4.15;2.22;;;20.30;83.30;;;;;;6191521;23;20050;-81
2023/07/09 03:20:47;;;;;;;3.67;1.90;;;20.30;83.30;;;;;;6191850;23;20004;-82
2023/07/09 03:23:12;;;;;;;3.63;2.17;;;20.20;83.30;;;;;;6191636;23;19993;-81
2023/07/09 03:25:42;;;;;;;3.78;1.95;;;20.30;83.20;;;;;;6191001;23;20005;-81
2023/07/09 03:28:08;;;;;;;4.25;2.25;;;20.30;83.30;;;;;;6217338;23;20458;-82
2023/07/09 03:30:33;;;;;;;3.60;2.17;;;20.20;83.30;;;;;;6191601;23;20015;-82
2023/07/09 03:33:00;;;;;;;3.70;2.30;;;20.20;83.40;;;;;;6192775;23;20040;-82
2023/07/09 03:35:26;;;;;;;3.60;2.13;;;20.20;83.40;;;;;;6219348;23;20000;-82
2023/07/09 03:37:51;;;;;;;4.15;2.22;;;20.20;83.50;;;;;;6219261;23;20032;-81
2023/07/09 03:40:22;;;;;;;4.15;2.10;;;20.20;83.60;;;;;;6192573;23;20001;-81
2023/07/09 03:42:47;;;;;;;3.40;1.83;;;20.20;83.60;;;;;;6192377;23;20525;-80
2023/07/09 03:45:13;;;;;;;3.65;2.15;;;20.10;83.60;;;;;;6192441;23;20232;-81
2023/07/09 03:47:38;;;;;;;3.90;2.20;;;20.10;83.60;;;;;;6218478;23;20008;-82
2023/07/09 03:50:09;;;;;;;3.40;2.15;;;20.10;83.70;;;;;;6192507;23;20012;-82
2023/07/09 03:52:34;;;;;;;3.90;1.95;;;20.10;83.70;;;;;;6218881;23;19996;-81
2023/07/09 03:55:03;;;;;;;3.47;2.10;;;20.10;83.70;;;;;;6191941;23;20004;-81
2023/07/09 03:57:28;;;;;;;4.03;2.17;;;20.10;83.70;;;;;;6218112;23;19997;-81
2023/07/09 03:59:54;;;;;;;4.15;2.30;;;20.10;83.70;;;;;;6218941;23;20092;-80
2023/07/09 04:02:19;;;;;;;3.58;2.00;;;20.10;83.70;;;;;;6191148;23;20066;-81
2023/07/09 04:04:45;;;;;;;3.22;2.00;;;20.10;83.60;;;;;;6218088;23;19997;-81
2023/07/09 04:07:10;;;;;;;2.97;1.85;;;20.10;83.60;;;;;;6217166;23;20004;-81
2023/07/09 04:09:36;;;;;;;3.63;2.03;;;20.10;83.60;;;;;;6190677;23;20423;-81
2023/07/09 04:12:02;;;;;;;3.60;2.10;;;20.10;83.60;;;;;;6190889;23;20000;-79
2023/07/09 04:14:28;;;;;;;3.55;2.10;;;20.10;83.60;;;;;;6191055;23;20001;-80
2023/07/09 04:16:53;;;;;;;2.92;1.83;;;20.10;83.60;;;;;;6190486;23;20461;-80
2023/07/09 04:19:19;;;;;;;3.55;1.95;;;20.10;83.60;;;;;;6217843;23;19996;-81
2023/07/09 04:21:44;;;;;;;4.22;2.10;;;20.10;83.60;;;;;;6190993;23;20001;-81
2023/07/09 04:24:10;;;;;;;3.83;2.10;;;20.10;83.60;;;;;;6190640;23;20024;-81
2023/07/09 04:26:39;;;;;;;3.38;2.00;;;20.10;83.60;;;;;;6190093;23;20032;-81
2023/07/09 04:29:05;;;;;;;2.88;1.95;;;20.10;83.60;;;;;;6217099;23;20055;-82
2023/07/09 04:31:31;;;;;;;3.95;2.40;;;20.10;83.60;;;;;;6217159;23;20051;-81
2023/07/09 04:33:57;;;;;;;3.60;2.10;;;20.20;83.60;;;;;;6217143;23;20009;-80
2023/07/09 04:36:22;;;;;;;4.03;2.20;;;20.20;83.60;;;;;;6189711;23;20083;-80
2023/07/09 04:38:48;;;;;;;3.78;2.13;;;20.20;83.60;;;;;;6190185;23;20035;-80
2023/07/09 04:41:13;;;;;;;3.22;2.13;;;20.20;83.50;;;;;;6189991;23;20401;-81
2023/07/09 04:43:38;;;;;;;3.60;2.00;;;20.30;83.40;;;;;;6189454;23;20005;-81
2023/07/09 04:46:04;;;;;;;3.53;2.00;;;20.30;83.40;;;;;;6189265;23;20461;-81
2023/07/09 04:48:29;;;;;;;5.75;2.53;;;20.30;83.30;;;;;;6189813;23;20032;-80
2023/07/09 04:50:55;;;;;;;3.92;1.98;;;20.30;83.20;;;;;;6216724;23;20064;-80
2023/07/09 04:53:20;;;;;;;3.83;2.15;;;20.30;83.10;;;;;;6216691;23;20431;-81
2023/07/09 04:55:46;;;;;;;3.88;2.20;;;20.30;83.10;;;;;;6215883;23;20091;-81
2023/07/09 04:58:11;;;;;;;4.13;2.13;;;20.30;83.00;;;;;;6189612;23;19997;-81
2023/07/09 05:00:37;;;;;;;3.40;1.90;;;20.30;83.10;;;;;;6188860;23;20431;-80
2023/07/09 05:03:03;;;;;;;2.90;1.95;;;20.30;83.10;;;;;;6189565;23;19993;-81
2023/07/09 05:05:28;;;;;;;3.58;2.13;;;20.30;83.20;;;;;;6189573;23;20005;-80
2023/07/09 05:07:54;;;;;;;3.53;2.10;;;20.20;83.20;;;;;;6215939;23;20012;-79
2023/07/09 05:10:19;;;;;;;3.83;2.20;;;20.30;83.40;;;;;;6189614;23;20009;-80
2023/07/09 05:12:52;;;;;;;3.03;1.83;;;20.30;83.40;;;;;;6189781;23;20112;-82
2023/07/09 05:15:20;;;;;;;3.42;2.30;;;20.30;83.50;;;;;;6188733;23;20009;-82
2023/07/09 05:17:46;;;;;;;3.65;2.20;;;20.20;83.40;;;;;;6215150;23;20004;-79
2023/07/09 05:20:13;;;;;;;3.60;2.10;;;20.20;83.50;;;;;;6215855;23;20084;-80
2023/07/09 05:22:39;;;;;;;3.63;2.10;;;20.20;83.50;;;;;;6189670;23;20339;-80
2023/07/09 05:25:05;;;;;;;3.13;1.98;;;20.20;83.50;;;;;;6193134;23;20004;-81
2023/07/09 05:27:30;;;;;;;3.60;2.13;;;20.20;83.50;;;;;;6196122;23;20030;-81
2023/07/09 05:29:56;;;;;;;4.00;2.38;;;20.20;83.50;;;;;;6195748;23;20000;-81
2023/07/09 05:32:21;;;;;;;3.20;2.03;;;20.20;83.50;;;;;;6195781;23;20008;-81
2023/07/09 05:34:46;;;;;;;3.55;2.15;;;20.20;83.50;;;;;;6195690;23;20091;-81
2023/07/09 05:37:12;;;;;;;3.67;2.10;;;20.20;83.50;;;;;;6194209;23;19996;-81
2023/07/09 05:39:37;;;;;;;3.60;2.08;;;20.20;83.60;;;;;;6222591;23;19992;-81
2023/07/09 05:42:03;;;;;;;4.85;2.20;;;20.20;83.60;;;;;;6194887;23;20427;-82
2023/07/09 05:44:29;;;;;;;3.25;1.92;;;20.20;83.50;;;;;;6222113;23;20003;-82
2023/07/09 05:46:54;;;;;;;3.47;2.00;;;20.20;83.50;;;;;;6194735;23;20020;-81
2023/07/09 05:49:20;;;;;;;3.42;2.13;;;20.20;83.50;;;;;;6222291;23;20342;-81
2023/07/09 05:51:45;;;;;;;3.50;2.10;;;20.30;83.50;;;;;;6222839;23;20001;-81
2023/07/09 05:54:11;;;;;;;3.47;2.00;;;20.30;83.50;;;;;;6195060;23;20031;-81
2023/07/09 05:56:36;;;;;;;3.67;2.10;;;20.30;83.50;;;;;;6220711;23;20427;-81
2023/07/09 05:59:02;;;;;;;4.05;2.10;;;20.30;83.50;;;;;;6195239;23;20001;-82
2023/07/09 06:01:27;;;;;;;3.80;2.40;;;20.30;83.40;;;;;;6194547;23;20004;-81
2023/07/09 06:03:54;;;;;;;3.25;2.05;;;20.30;83.50;;;;;;6194252;23;20032;-81
2023/07/09 06:06:20;;;;;;;3.42;2.03;;;20.30;83.90;;;;;;6193635;23;20561;-82
2023/07/09 06:08:46;;;;;;;3.28;1.90;;;20.30;83.40;;;;;;6193822;23;20012;-81
2023/07/09 06:11:12;;;;;;;3.97;2.20;;;20.30;83.20;;;;;;6193572;23;20004;-81
2023/07/09 06:13:38;;;;;;;3.65;2.22;;;20.40;83.20;;;;;;6193811;23;20015;-82
2023/07/09 06:16:04;;;;;;;3.40;2.20;;;20.40;83.10;;;;;;6192569;23;20082;-82
2023/07/09 06:18:30;;;;;;;3.33;2.03;;;20.40;83.00;;;;;;6192761;23;20370;-81
2023/07/09 06:20:58;;;;;;;3.47;1.90;;;20.40;82.90;;;;;;6192780;23;20001;-80
2023/07/09 06:23:24;;;;;;;4.40;2.35;;;20.40;82.80;;;;;;6219594;23;20005;-82
2023/07/09 06:25:51;;;;;;;3.13;1.90;;;20.40;82.80;;;;;;6191954;23;20009;-82
2023/07/09 06:28:18;;;;;;;3.67;2.20;;;20.50;82.70;;;;;;6192008;23;20009;-79
2023/07/09 06:30:45;;;;;;;3.47;1.90;;;20.50;83.20;;;;;;6191734;23;20155;-81
2023/07/09 06:33:12;;;;;;;2.97;2.00;;;20.50;82.60;;;;;;6191634;23;20019;-82
2023/07/09 06:35:39;;;;;;;2.83;1.95;;;20.50;82.60;;;;;;6191631;23;20381;-81
2023/07/09 06:38:05;;;;;;;3.33;2.10;;;20.50;82.50;;;;;;6191005;23;20064;-81
2023/07/09 06:40:31;;;;;;;3.17;1.98;;;20.50;82.50;;;;;;6191631;23;20001;-81
2023/07/09 06:42:57;;;;;;;3.60;2.15;;;20.50;82.60;;;;;;6218401;23;20362;-81
2023/07/09 06:45:23;;;;;;;3.80;2.20;;;20.50;82.70;;;;;;6190368;23;20335;-81
2023/07/09 06:47:49;;;;;;;3.75;2.30;;;20.50;82.70;;;;;;6189777;23;20082;-81
2023/07/09 06:50:15;;;;;;;3.70;2.00;;;20.50;82.70;;;;;;6191085;23;20431;-82
2023/07/09 06:52:41;;;;;;;3.80;2.20;;;20.50;82.90;;;;;;6191108;23;20015;-81
2023/07/09 06:55:07;;;;;;;3.85;2.10;;;20.50;82.80;;;;;;6216995;23;20009;-81
2023/07/09 06:57:33;;;;;;;3.25;2.00;;;20.50;82.90;;;;;;6216616;23;19996;-82
2023/07/09 06:59:58;;;;;;;3.22;1.98;;;20.50;82.80;;;;;;6217122;23;20000;-81
2023/07/09 07:02:24;;;;;;;3.40;2.08;;;20.50;82.80;;;;;;6190068;23;20036;-81
2023/07/09 07:04:49;;;;;;;4.00;2.30;;;20.50;82.80;;;;;;6217618;23;20050;-81
2023/07/09 07:07:15;;;;;;;3.25;2.10;;;20.50;82.80;;;;;;6216152;23;20012;-81
2023/07/09 07:09:40;;;;;;;2.83;1.80;;;20.50;82.80;;;;;;6187651;23;20028;-81
2023/07/09 07:12:06;;;;;;;4.10;2.00;;;20.50;82.80;;;;;;6185115;23;20034;-80
2023/07/09 07:14:32;;;;;;;3.60;2.10;;;20.50;82.70;;;;;;6184700;23;20000;-81
2023/07/09 07:16:57;;;;;;;3.40;2.10;;;20.50;82.70;;;;;;6211029;23;20009;-80
2023/07/09 07:19:23;;;;;;;4.03;2.15;;;20.50;82.70;;;;;;6210462;23;20509;-81
2023/07/09 07:21:49;;;;;;;3.67;2.00;;;20.50;82.60;;;;;;6185709;23;20036;-81
2023/07/09 07:24:14;;;;;;;2.85;1.80;;;20.60;82.70;;;;;;6185722;23;20462;-81
2023/07/09 07:26:40;;;;;;;2.92;1.83;;;20.60;82.60;;;;;;6185037;23;20005;-79
2023/07/09 07:29:05;;;;;;;4.07;2.20;;;20.60;82.60;;;;;;6186584;23;20008;-81
2023/07/09 07:31:31;;;;;;;3.17;1.90;;;20.60;82.60;;;;;;6186043;23;20011;-80
2023/07/09 07:33:56;;;;;;;3.47;1.90;;;20.60;82.60;;;;;;6186381;23;20012;-81
2023/07/09 07:36:22;;;;;;;3.38;2.00;;;20.60;82.60;;;;;;6185647;23;20020;-81
2023/07/09 07:38:47;;;;;;;3.38;1.92;;;20.60;82.60;;;;;;6187083;23;20000;-79
2023/07/09 07:41:13;;;;;;;2.85;1.90;;;20.60;82.50;;;;;;6186671;23;20447;-81
2023/07/09 07:43:38;;;;;;;3.88;2.20;;;20.60;82.40;;;;;;6212953;23;20021;-81
2023/07/09 07:46:04;;;;;;;3.42;1.90;;;20.70;82.30;;;;;;6212641;23;20000;-82
2023/07/09 07:48:30;;;;;;;2.67;1.67;;;20.80;82.30;;;;;;6185752;23;20040;-80
2023/07/09 07:51:01;;;;;;;3.05;1.80;;;20.80;82.10;;;;;;6212503;23;20009;-81
2023/07/09 07:53:29;;;;;;;3.92;2.22;;;20.80;81.90;;;;;;6212770;23;20035;-82
2023/07/09 07:55:56;;;;;;;3.35;1.90;;;20.80;81.80;;;;;;6185262;23;20012;-81
2023/07/09 07:58:21;;;;;;;3.42;2.03;;;20.90;81.80;;;;;;6186466;23;20280;-81
2023/07/09 08:00:47;;;;;;;2.92;1.85;;;20.90;81.70;;;;;;6185765;23;20004;-81
2023/07/09 08:03:13;;;;;;;2.97;1.80;;;20.90;81.60;;;;;;6211583;23;20424;-81
2023/07/09 08:05:38;;;;;;;3.58;2.00;;;20.90;81.70;;;;;;6185108;23;20009;-80
2023/07/09 08:08:04;;;;;;;4.05;2.22;;;20.90;81.60;;;;;;6212065;23;20012;-81
2023/07/09 08:10:29;;;;;;;2.83;1.83;;;20.90;81.50;;;;;;6211875;23;20008;-80
2023/07/09 08:12:57;;;;;;;3.65;2.17;;;20.90;81.50;;;;;;6211320;23;20005;-81
2023/07/09 08:15:24;;;;;;;3.20;1.98;;;20.90;81.60;;;;;;6184831;23;20009;-81
2023/07/09 08:17:49;;;;;;;3.28;2.00;;;20.90;81.70;;;;;;6185894;23;20001;-82
2023/07/09 08:20:15;;;;;;;2.53;1.70;;;20.90;81.80;;;;;;6186930;23;20019;-79
2023/07/09 08:22:40;;;;;;;3.38;1.95;;;20.90;81.80;;;;;;6188834;23;20000;-80
2023/07/09 08:25:06;;;;;;;3.97;2.20;;;20.90;81.90;;;;;;6186976;23;20000;-80
2023/07/09 08:27:32;;;;;;;3.53;2.00;;;20.90;81.90;;;;;;6184850;23;20005;-82
2023/07/09 08:29:57;;;;;;;3.90;2.22;;;20.90;81.90;;;;;;6186342;23;20431;-81
2023/07/09 08:32:23;;;;;;;4.28;2.30;;;20.90;81.90;;;;;;6190011;23;20016;-82
2023/07/09 08:34:48;;;;;;;4.10;2.10;;;20.90;81.90;;;;;;6189835;23;20502;-81
2023/07/09 08:37:13;;;;;;;3.63;2.20;;;20.90;82.00;;;;;;6188416;23;20080;-80
2023/07/09 08:39:39;;;;;;;3.88;2.25;;;20.90;82.00;;;;;;6189579;23;20000;-80
2023/07/09 08:42:10;;;;;;;4.22;2.25;;;20.90;82.00;;;;;;6190133;23;20288;-82
2023/07/09 08:45:15;;;;;;;4.03;2.30;;;20.90;82.00;;;;;;6188858;23;20062;-80
2023/07/09 08:48:01;;;;;;;3.88;2.30;;;21.00;82.00;;;;;;6186262;23;20060;-81
2023/07/09 08:50:35;;;;;;;3.58;2.20;;;20.90;82.00;;;;;;6190687;23;20005;-82
2023/07/09 08:53:01;;;;;;;3.33;2.00;;;21.00;81.90;;;;;;6190010;23;20075;-81
2023/07/09 08:55:40;;;;;;;4.47;2.40;;;21.00;81.90;;;;;;6189007;23;20013;-81
2023/07/09 08:58:11;;;;;;;3.83;2.38;;;21.00;81.80;;;;;;6189092;23;20031;-81
2023/07/09 09:01:00;;;;;;;4.72;2.40;;;21.00;81.80;;;;;;6188900;23;20008;-82
2023/07/09 09:03:41;;;;;;;3.83;2.42;;;21.10;81.80;;;;;;6189020;23;20404;-81
2023/07/09 09:06:19;;;;;;;4.22;2.40;;;21.10;81.70;;;;;;6215563;23;20031;-81
2023/07/09 09:08:44;;;;;;;4.55;2.47;;;21.10;81.70;;;;;;6188380;23;20100;-81
2023/07/09 09:11:14;;;;;;;3.97;2.17;;;21.10;81.70;;;;;;6188034;23;20008;-78
2023/07/09 09:13:40;;;;;;;4.57;2.58;;;21.10;81.70;;;;;;6188168;23;20009;-82
2023/07/09 09:16:17;;;;;;;4.75;2.60;;;21.10;81.60;;;;;;6187387;23;20024;-81
2023/07/09 09:18:44;;;;;;;4.72;2.70;;;21.10;81.60;;;;;;6187817;23;20005;-81
2023/07/09 09:21:28;;;;;;;5.55;2.55;;;21.20;81.50;;;;;;6215260;23;20008;-81
2023/07/09 09:23:59;;;;;;;5.25;2.40;;;21.20;81.40;;;;;;6214142;23;20008;-80
2023/07/09 09:26:30;;;;;;;4.47;2.77;;;21.30;81.30;;;;;;6187135;23;20012;-81
2023/07/09 09:28:55;;;;;;;;;;;21.30;81.10;;;;;;6187674;23;20019;-81
2023/07/09 09:31:21;;;;;;;;;;;21.30;81.00;;;;;;6186658;23;19900;-79
2023/07/09 09:33:48;;;;;;;;;;;21.40;81.90;;;;;;6186871;23;19911;-81
2023/07/09 09:36:18;;;;;;;;;;;21.40;81.70;;;;;;6187733;23;19904;-81
2023/07/09 09:38:44;;;;;;;;;;;21.50;81.60;;;;;;6186410;23;20562;-77
2023/07/09 09:41:12;;;;;;;;;;;21.50;81.60;;;;;;6186446;23;19903;-82
2023/07/09 09:43:37;;;;;;;;;;;21.50;81.50;;;;;;6186239;23;19904;-81
2023/07/09 09:46:05;;;;;;;;;;;21.50;81.40;;;;;;6211722;23;20441;-81
2023/07/09 09:48:31;;;;;;;;;;;21.50;81.40;;;;;;6186151;23;19942;-79
2023/07/09 09:51:01;;;;;;;;;;;21.50;81.30;;;;;;6211714;23;20215;-82
2023/07/09 09:53:27;;;;;;;;;;;21.50;81.80;;;;;;6213299;23;19907;-82
2023/07/09 09:55:54;;;;;;;;;;;21.50;81.40;;;;;;6185642;23;19912;-80
2023/07/09 09:58:19;;;;;;;;;;;21.50;81.20;;;;;;6185982;23;19903;-79
2023/07/09 10:00:50;;;;;;;;;;;21.50;81.20;;;;;;6212847;23;20315;-81
2023/07/09 10:03:15;;;;;;;;;;;21.50;81.20;;;;;;6213071;23;20438;-82
2023/07/09 10:05:44;;;;;;;;;;;21.50;81.80;;;;;;6185589;23;19943;-81
2023/07/09 10:08:28;;;;;;;;;;;21.50;81.30;;;;;;6185722;23;19985;-82
2023/07/09 10:10:59;;;;;;;;;;;21.50;81.30;;;;;;6185429;23;19904;-81
2023/07/09 10:13:29;;;;;;;;;;;21.50;81.40;;;;;;6185437;23;20401;-81
2023/07/09 10:16:13;;;;;;;;;;;21.40;81.40;;;;;;6184608;23;19990;-81
2023/07/09 10:18:47;;;;;;;;;;;21.50;81.50;;;;;;6185334;23;20319;-81
2023/07/09 10:21:20;;;;;;;;;;;21.40;81.50;;;;;;6212414;23;19989;-82
2023/07/09 10:24:08;;;;;;;;;;;21.50;81.50;;;;;;6184829;23;19911;-80
2023/07/09 10:26:56;;;;;;;;;;;21.50;81.50;;;;;;6211035;23;20405;-82
2023/07/09 10:29:44;;;;;;;;;;;21.50;81.50;;;;;;6211716;23;20386;-81
2023/07/09 10:32:20;;;;;;;;;;;21.50;81.50;;;;;;6211568;23;19900;-81
2023/07/09 10:35:04;;;;;;;;;;;21.50;81.50;;;;;;6185012;23;19907;-80
2023/07/09 10:37:45;;;;;;;;;;;21.50;81.50;;;;;;6183934;23;19908;-81
2023/07/09 10:40:13;;;;;;;;;;;21.50;81.70;;;;;;6184617;23;19907;-81
2023/07/09 10:42:44;;;;;;;;;;;21.50;81.50;;;;;;6211373;23;19954;-81
2023/07/09 10:45:11;;;;;;;;;;;21.50;81.40;;;;;;6211582;23;19903;-81
2023/07/09 10:47:42;;;;;;;;;;;21.60;81.40;;;;;;6183686;23;20253;-80
2023/07/09 10:50:15;;;;;;;;;;;21.60;81.20;;;;;;6184293;23;19903;-80
2023/07/09 10:52:43;;;;;;;;;;;21.60;81.20;;;;;;6211439;23;20311;-81
2023/07/09 10:55:15;;;;;;;;;;;21.60;81.00;;;;;;6184727;23;19938;-81
2023/07/09 10:57:44;;;;;;;;;;;21.60;81.00;;;;;;6210260;23;19983;-81
2023/07/09 11:00:17;;;;;;;;;;;21.60;81.00;;;;;;6211080;23;19911;-81
2023/07/09 11:02:43;;;;;;;;;;;21.60;80.90;;;;;;6210948;23;19931;-80
2023/07/09 11:05:09;;;;;;;;;;;21.70;80.90;;;;;;6210957;23;19906;-81
2023/07/09 11:07:53;;;;;;;;;;;21.70;80.90;;;;;;6183667;23;19986;-80
2023/07/09 11:10:27;;;;;;;;;;;21.60;80.80;;;;;;6210605;23;20233;-81
2023/07/09 11:13:04;;;;;;;;;;;21.70;81.40;;;;;;6210986;23;19911;-81
2023/07/09 11:15:31;;;;;;;;;;;21.60;80.90;;;;;;6184563;23;19911;-81
2023/07/09 11:17:57;;;;;;;;;;;21.60;81.00;;;;;;6183765;23;19907;-81
2023/07/09 11:20:25;;;;;;;;;;;21.60;81.00;;;;;;6184715;23;19904;-81
2023/07/09 11:22:54;;;;;;;;;;;21.60;81.10;;;;;;6210990;23;19904;-82
2023/07/09 11:25:49;;;;;;;;;;;21.60;81.20;;;;;;6184463;23;19900;-81
2023/07/09 11:28:15;;;;;;;;;;;21.60;81.30;;;;;;6178136;23;19908;-81
2023/07/09 11:30:48;;;;;;;;;;;21.60;81.40;;;;;;6184223;23;19900;-81
2023/07/09 11:33:18;;;;;;;;;;;21.60;81.40;;;;;;6210978;23;19923;-81
2023/07/09 11:35:46;;;;;;;;;;;21.60;81.50;;;;;;6183206;23;19908;-83
2023/07/09 11:38:16;;;;;;;;;;;21.60;81.60;;;;;;6189454;23;19904;-82
2023/07/09 11:40:46;;;;;;;;;;;21.50;81.50;;;;;;6187913;23;19910;-82
2023/07/09 11:43:25;;;;;;;;;;;21.50;81.60;;;;;;6214602;23;20227;-82
2023/07/09 11:45:51;;;;;;;;;;;21.50;81.60;;;;;;6187334;23;20196;-83
2023/07/09 11:48:25;;;;;;;;;;;21.50;81.70;;;;;;6187724;23;19934;-81
2023/07/09 11:50:52;;;;;;;;;;;21.50;81.70;;;;;;6187430;23;19900;-82
2023/07/09 11:53:17;;;;;;;;;;;21.50;81.70;;;;;;6188605;23;19900;-82
2023/07/09 11:55:44;;;;;;;;;;;21.50;81.90;;;;;;6215186;23;20220;-84
2023/07/09 11:58:13;;;;;;;;;;;21.50;81.70;;;;;;6217595;23;19900;-82
2023/07/09 12:00:49;;;;;;;;;;;21.50;81.80;;;;;;6217112;23;19919;-82
2023/07/09 12:03:17;;;;;;;;;;;21.50;81.80;;;;;;6190268;23;19904;-82
2023/07/09 12:05:46;;;;;;;;;;;21.50;82.00;;;;;;6216487;23;20319;-81
2023/07/09 12:08:14;;;;;;;;;;;21.50;81.80;;;;;;6189428;23;19910;-82
2023/07/09 12:10:39;;;;;;;;;;;21.50;81.80;;;;;;6216573;23;19910;-83
2023/07/09 12:13:05;;;;;;;;;;;21.60;81.80;;;;;;6189118;23;19903;-82
2023/07/09 12:15:31;;;;;;;;;;;21.60;81.60;;;;;;6189231;23;19916;-81
2023/07/09 12:17:58;;;;;;;;;;;21.60;81.50;;;;;;6188751;23;19911;-82
2023/07/09 12:20:24;;;;;;;;;;;21.60;81.50;;;;;;6215505;23;20084;-80
2023/07/09 12:22:50;;;;;;;;;;;21.60;81.40;;;;;;6188853;23;20370;-82
2023/07/09 12:25:24;;;;;;;;;;;21.60;81.30;;;;;;6188384;23;19994;-81
2023/07/09 12:27:50;;;;;;;;;;;21.60;81.30;;;;;;6187609;23;19911;-83
2023/07/09 12:30:16;;;;;;;;;;;21.60;81.30;;;;;;6214892;23;19931;-80
2023/07/09 12:32:46;;;;;;;;;;;21.60;81.30;;;;;;6187942;23;20305;-81
2023/07/09 12:35:12;;;;;;;;;;;21.60;81.30;;;;;;6187277;23;20242;-82
2023/07/09 12:37:38;;;;;;;;;;;21.60;81.30;;;;;;6187200;23;20275;-82
2023/07/09 12:40:04;;;;;;;;;;;21.60;81.40;;;;;;6187005;23;19954;-82
2023/07/09 12:42:31;;;;;;;;;;;21.60;81.50;;;;;;6187558;23;19900;-82
2023/07/09 12:44:57;;;;;;;;;;;21.50;81.60;;;;;;6214341;23;19900;-80
2023/07/09 12:47:24;;;;;;;;;;;21.50;81.60;;;;;;6186753;23;20318;-81
2023/07/09 12:49:51;;;;;;;;;;;21.50;81.70;;;;;;6187377;23;19904;-82
2023/07/09 12:52:19;;;;;;;;;;;21.50;81.80;;;;;;6186953;23;19911;-83
2023/07/09 12:54:51;;;;;;;;;;;21.50;81.80;;;;;;6186782;23;20223;-81
2023/07/09 12:57:17;;;;;;;;;;;21.50;81.90;;;;;;6186997;23;19958;-81
2023/07/09 12:59:45;;;;;;;;;;;21.50;82.50;;;;;;6186917;23;19935;-81
2023/07/09 13:02:14;;;;;;;;;;;21.50;82.10;;;;;;6186242;23;19907;-81
2023/07/09 13:04:39;;;;;;;;;;;21.50;82.10;;;;;;6212808;23;19911;-81
2023/07/09 13:07:23;;;;;;;;;;;21.40;82.10;;;;;;6185908;23;19904;-81
2023/07/09 13:09:49;;;;;;;;;;;21.30;82.20;;;;;;6186479;23;19900;-81
2023/07/09 13:12:14;;;;;;;;;;;21.40;82.30;;;;;;6186337;23;19908;-80
2023/07/09 13:14:40;;;;;;;;;;;21.40;82.30;;;;;;6186319;23;19900;-81